createdAt,value
2019-03-11T00:01:22.444Z,1.80
2019-03-11T00:03:51.827Z,1.70
2019-03-11T00:06:23.908Z,2.60
2019-03-11T00:08:53.039Z,2.30
2019-03-11T00:11:22.358Z,2.27
2019-03-11T00:13:51.406Z,2.40
2019-03-11T00:16:20.723Z,2.00
2019-03-11T00:18:49.784Z,2.70
2019-03-11T00:21:18.792Z,2.20
2019-03-11T00:23:48.126Z,2.13
2019-03-11T00:26:17.625Z,1.97
2019-03-11T00:28:47.303Z,1.97
2019-03-11T00:31:16.310Z,1.90
2019-03-11T00:33:45.372Z,2.03
2019-03-11T00:36:14.488Z,1.90
2019-03-11T00:38:43.506Z,1.53
2019-03-11T00:41:12.550Z,1.30
2019-03-11T00:43:41.552Z,1.50
2019-03-11T00:46:10.950Z,1.70
2019-03-11T00:48:39.992Z,1.33
2019-03-11T00:51:08.996Z,1.40
2019-03-11T00:53:38.668Z,1.10
2019-03-11T00:56:07.716Z,1.80
2019-03-11T00:58:36.740Z,1.30
2019-03-11T01:01:06.122Z,1.30
2019-03-11T01:03:35.190Z,1.30
2019-03-11T01:06:04.206Z,1.40
2019-03-11T01:08:33.206Z,1.00
2019-03-11T01:11:02.309Z,1.10
2019-03-11T01:13:31.305Z,1.40
2019-03-11T01:16:00.626Z,1.53
2019-03-11T01:18:30.397Z,1.67
2019-03-11T01:20:59.423Z,1.30
2019-03-11T01:23:28.699Z,1.30
2019-03-11T01:25:58.099Z,1.20
2019-03-11T01:28:27.418Z,1.37
2019-03-11T01:30:56.420Z,1.30
2019-03-11T01:33:25.430Z,1.20
2019-03-11T01:35:54.480Z,1.30
2019-03-11T01:38:23.504Z,1.10
2019-03-11T01:40:52.524Z,1.40
2019-03-11T01:43:21.534Z,1.10
2019-03-11T01:45:50.564Z,1.07
2019-03-11T01:48:19.959Z,1.30
2019-03-11T01:50:49.067Z,1.10
2019-03-11T01:53:18.088Z,1.90
2019-03-11T01:55:47.104Z,1.53
2019-03-11T01:58:16.128Z,2.03
2019-03-11T02:00:45.454Z,1.43
2019-03-11T02:03:14.450Z,1.50
2019-03-11T02:05:43.741Z,2.23
2019-03-11T02:08:12.762Z,1.33
2019-03-11T02:10:41.789Z,1.00
2019-03-11T02:13:11.236Z,1.20
2019-03-11T02:15:40.538Z,1.37
2019-03-11T02:18:09.943Z,1.20
2019-03-11T02:20:38.961Z,1.80
2019-03-11T02:23:08.381Z,1.33
2019-03-11T02:25:37.362Z,1.70
2019-03-11T02:28:06.747Z,1.60
2019-03-11T02:30:35.780Z,1.40
2019-03-11T02:33:04.872Z,1.37
2019-03-11T02:35:34.267Z,1.27
2019-03-11T02:38:03.293Z,1.40
2019-03-11T02:40:32.308Z,1.40
2019-03-11T02:43:01.624Z,1.77
2019-03-11T02:45:30.650Z,1.60
2019-03-11T02:47:59.698Z,1.33
2019-03-11T02:50:28.673Z,1.30
2019-03-11T02:52:57.707Z,1.50
2019-03-11T02:55:26.739Z,1.50
2019-03-11T02:57:55.811Z,1.67
2019-03-11T03:00:24.838Z,1.60
2019-03-11T03:03:04.089Z,1.53
2019-03-11T03:05:36.774Z,1.90
2019-03-11T03:08:05.925Z,2.20
2019-03-11T03:10:34.974Z,1.90
2019-03-11T03:13:04.003Z,1.63
2019-03-11T03:15:33.018Z,1.90
2019-03-11T03:18:02.060Z,1.80
2019-03-11T03:20:31.104Z,2.00
2019-03-11T03:23:00.484Z,1.53
2019-03-11T03:25:34.601Z,1.73
2019-03-11T03:28:00.717Z,1.83
2019-03-11T03:30:30.223Z,2.33
2019-03-11T03:32:59.272Z,1.40
2019-03-11T03:35:28.357Z,2.00
2019-03-11T03:37:57.362Z,1.40
2019-03-11T03:40:26.706Z,1.80
2019-03-11T03:42:56.114Z,2.07
2019-03-11T03:45:27.939Z,1.87
2019-03-11T03:47:57.785Z,1.67
2019-03-11T03:50:27.357Z,2.00
2019-03-11T03:52:56.416Z,1.60
2019-03-11T03:55:25.400Z,2.53
2019-03-11T03:57:54.405Z,1.97
2019-03-11T04:00:23.487Z,1.67
2019-03-11T04:02:52.521Z,1.90
2019-03-11T04:05:21.526Z,1.50
2019-03-11T04:07:50.555Z,2.30
2019-03-11T04:10:19.593Z,1.50
2019-03-11T04:12:48.741Z,1.57
2019-03-11T04:15:18.277Z,1.60
2019-03-11T04:17:47.972Z,1.70
2019-03-11T04:20:18.077Z,1.60
2019-03-11T04:22:47.123Z,1.67
2019-03-11T04:25:16.214Z,1.97
2019-03-11T04:27:45.786Z,2.00
2019-03-11T04:30:19.828Z,1.90
2019-03-11T04:32:48.846Z,1.67
2019-03-11T04:35:18.644Z,1.40
2019-03-11T04:37:47.995Z,1.87
2019-03-11T04:40:17.618Z,1.97
2019-03-11T04:42:46.914Z,1.90
2019-03-11T04:45:15.972Z,2.13
2019-03-11T04:47:45.015Z,1.70
2019-03-11T04:50:14.510Z,1.57
2019-03-11T04:52:43.554Z,1.90
2019-03-11T04:55:12.923Z,1.83
2019-03-11T04:57:43.877Z,1.57
2019-03-11T05:00:15.258Z,1.90
2019-03-11T05:02:44.291Z,1.57
2019-03-11T05:05:13.340Z,1.90
2019-03-11T05:07:42.684Z,1.80
2019-03-11T05:10:11.957Z,1.70
2019-03-11T05:12:41.077Z,2.03
2019-03-11T05:15:10.471Z,1.93
2019-03-11T05:17:39.504Z,1.90
2019-03-11T05:20:08.950Z,1.50
2019-03-11T05:22:37.952Z,1.80
2019-03-11T05:25:07.452Z,1.77
2019-03-11T05:27:36.796Z,1.30
2019-03-11T05:30:06.906Z,1.60
2019-03-11T05:32:36.233Z,1.33
2019-03-11T05:35:05.582Z,1.70
2019-03-11T05:37:35.337Z,1.43
2019-03-11T05:40:05.398Z,1.43
2019-03-11T05:42:34.434Z,1.73
2019-03-11T05:45:03.446Z,2.40
2019-03-11T05:47:32.520Z,1.50
2019-03-11T05:50:01.552Z,2.00
2019-03-11T05:52:30.555Z,1.57
2019-03-11T05:54:59.600Z,1.77
2019-03-11T05:57:28.626Z,1.60
2019-03-11T05:59:57.672Z,1.50
2019-03-11T06:02:26.714Z,1.70
2019-03-11T06:04:56.150Z,1.80
2019-03-11T06:07:25.526Z,2.17
2019-03-11T06:09:54.504Z,1.73
2019-03-11T06:12:23.642Z,2.23
2019-03-11T06:14:52.659Z,1.93
2019-03-11T06:17:21.666Z,1.83
2019-03-11T06:19:57.822Z,1.43
2019-03-11T06:22:29.437Z,1.90
2019-03-11T06:24:58.799Z,2.70
2019-03-11T06:27:28.212Z,2.30
2019-03-11T06:29:57.275Z,1.77
2019-03-11T06:32:26.310Z,1.70
2019-03-11T06:34:55.330Z,1.93
2019-03-11T06:37:24.351Z,2.03
2019-03-11T06:39:53.389Z,1.67
2019-03-11T06:42:22.508Z,2.10
2019-03-11T06:44:51.516Z,2.00
2019-03-11T06:47:21.278Z,1.93
2019-03-11T06:49:50.282Z,2.23
2019-03-11T06:52:19.572Z,1.93
2019-03-11T06:54:49.009Z,2.17
2019-03-11T06:57:18.013Z,2.77
2019-03-11T06:59:47.056Z,3.17
2019-03-11T07:02:16.114Z,2.93
2019-03-11T07:04:45.164Z,2.83
2019-03-11T07:07:14.895Z,1.97
2019-03-11T07:09:43.908Z,1.73
2019-03-11T07:12:13.335Z,2.00
2019-03-11T07:14:42.369Z,2.40
2019-03-11T07:17:11.423Z,1.80
2019-03-11T07:19:40.484Z,1.80
2019-03-11T07:22:09.494Z,1.87
2019-03-11T07:24:38.556Z,1.90
2019-03-11T07:27:07.620Z,2.23
2019-03-11T07:29:36.653Z,2.20
2019-03-11T07:32:05.656Z,1.93
2019-03-11T07:34:34.711Z,1.70
2019-03-11T07:37:03.785Z,1.80
2019-03-11T07:39:32.842Z,2.53
2019-03-11T07:42:01.847Z,1.93
2019-03-11T07:44:30.880Z,1.73
2019-03-11T07:46:59.885Z,2.00
2019-03-11T07:49:31.786Z,2.23
2019-03-11T07:52:02.629Z,1.73
2019-03-11T07:54:35.727Z,1.97
2019-03-11T07:57:02.367Z,1.67
2019-03-11T07:59:31.424Z,2.27
2019-03-11T08:02:00.539Z,2.47
2019-03-11T08:04:29.913Z,2.00
2019-03-11T08:06:58.925Z,2.13
2019-03-11T08:09:37.251Z,1.73
2019-03-11T08:11:59.350Z,1.70
2019-03-11T08:14:28.775Z,2.00
2019-03-11T08:16:57.765Z,2.30
2019-03-11T08:19:26.787Z,2.17
2019-03-11T08:21:56.158Z,2.07
2019-03-11T08:24:25.195Z,2.03
2019-03-11T08:26:54.221Z,2.17
2019-03-11T08:29:23.208Z,1.90
2019-03-11T08:31:52.211Z,1.90
2019-03-11T08:34:21.243Z,2.10
2019-03-11T08:36:50.257Z,1.87
2019-03-11T08:39:19.287Z,1.83
2019-03-11T08:41:48.736Z,1.80
2019-03-11T08:44:18.155Z,2.47
2019-03-11T08:46:47.205Z,2.40
2019-03-11T08:49:16.254Z,1.70
2019-03-11T08:51:45.285Z,2.20
2019-03-11T08:54:14.417Z,2.13
2019-03-11T08:56:43.712Z,1.90
2019-03-11T08:59:13.051Z,1.80
2019-03-11T09:01:42.177Z,1.77
2019-03-11T09:04:11.554Z,2.13
2019-03-11T09:06:41.354Z,2.40
2019-03-11T09:09:12.024Z,1.73
2019-03-11T09:11:41.023Z,2.03
2019-03-11T09:14:10.086Z,2.70
2019-03-11T09:16:39.917Z,1.93
2019-03-11T09:19:09.178Z,2.07
2019-03-11T09:21:38.717Z,2.40
2019-03-11T09:24:18.406Z,2.07
2019-03-11T09:26:38.906Z,2.03
2019-03-11T09:29:07.943Z,2.00
2019-03-11T09:31:37.306Z,2.17
2019-03-11T09:34:06.701Z,1.90
2019-03-11T09:36:35.716Z,2.40
2019-03-11T09:39:05.786Z,1.70
2019-03-11T09:41:34.800Z,2.20
2019-03-11T09:44:04.163Z,2.07
2019-03-11T09:46:33.224Z,2.20
2019-03-11T09:49:02.257Z,2.10
2019-03-11T09:51:31.276Z,1.90
2019-03-11T09:54:00.685Z,2.40
2019-03-11T09:56:29.921Z,2.37
2019-03-11T09:58:58.989Z,2.27
2019-03-11T10:01:28.367Z,2.10
2019-03-11T10:03:57.407Z,1.93
2019-03-11T10:06:26.996Z,2.13
2019-03-11T10:08:56.388Z,2.07
2019-03-11T10:11:26.142Z,1.80
2019-03-11T10:13:55.213Z,1.90
2019-03-11T10:16:24.677Z,1.90
2019-03-11T10:18:54.005Z,2.00
2019-03-11T10:21:23.022Z,2.50
2019-03-11T10:23:52.298Z,2.25
2019-03-11T10:26:21.341Z,2.08
2019-03-11T10:28:50.707Z,2.20
2019-03-11T10:31:19.736Z,1.90
2019-03-11T10:33:48.765Z,1.80
2019-03-11T10:36:17.813Z,2.23
2019-03-11T10:38:46.863Z,1.93
2019-03-11T10:41:15.905Z,1.90
2019-03-11T10:43:44.977Z,2.10
2019-03-11T10:46:14.027Z,1.80
2019-03-11T10:48:43.050Z,1.60
2019-03-11T10:51:12.457Z,1.50
2019-03-11T10:53:41.475Z,1.77
2019-03-11T10:56:11.257Z,1.93
2019-03-11T10:58:40.313Z,1.90
2019-03-11T11:01:09.915Z,1.43
2019-03-11T11:03:39.099Z,1.90
2019-03-11T11:06:08.230Z,1.60
2019-03-11T11:08:37.910Z,1.90
2019-03-11T11:11:06.940Z,1.90
2019-03-11T11:13:36.057Z,1.93
2019-03-11T11:16:05.491Z,1.90
2019-03-11T11:18:34.600Z,2.17
2019-03-11T11:21:04.368Z,1.80
2019-03-11T11:23:33.770Z,2.00
2019-03-11T11:26:03.127Z,2.00
2019-03-11T11:28:32.157Z,2.10
2019-03-11T11:31:01.213Z,1.60
2019-03-11T11:33:30.260Z,1.73
2019-03-11T11:35:59.288Z,1.90
2019-03-11T11:38:28.634Z,1.60
2019-03-11T11:40:57.691Z,1.80
2019-03-11T11:43:26.998Z,1.73
2019-03-11T11:45:56.351Z,1.80
2019-03-11T11:48:25.935Z,1.70
2019-03-11T11:50:54.976Z,2.10
2019-03-11T11:53:25.193Z,1.60
2019-03-11T11:55:57.930Z,1.87
2019-03-11T11:58:25.227Z,1.90
2019-03-11T12:00:54.271Z,1.87
2019-03-11T12:03:23.340Z,1.47
2019-03-11T12:05:59.910Z,1.73
2019-03-11T12:08:29.242Z,1.97
2019-03-11T12:10:58.255Z,1.53
2019-03-11T12:13:27.629Z,1.73
2019-03-11T12:15:56.780Z,1.93
2019-03-11T12:18:26.188Z,1.60
2019-03-11T12:20:55.641Z,1.77
2019-03-11T12:23:24.779Z,2.07
2019-03-11T12:25:53.825Z,1.57
2019-03-11T12:28:23.179Z,1.70
2019-03-11T12:30:52.229Z,1.53
2019-03-11T12:33:21.296Z,1.90
2019-03-11T12:35:50.336Z,1.70
2019-03-11T12:38:19.385Z,1.37
2019-03-11T12:40:48.908Z,2.07
2019-03-11T12:43:17.974Z,2.10
2019-03-11T12:45:47.362Z,1.50
2019-03-11T12:48:16.368Z,1.60
2019-03-11T12:50:46.004Z,1.93
2019-03-11T12:53:17.661Z,1.50
2019-03-11T12:55:47.423Z,1.80
2019-03-11T12:58:16.747Z,2.17
2019-03-11T13:00:46.135Z,1.80
2019-03-11T13:03:15.243Z,1.70
2019-03-11T13:05:44.251Z,1.90
2019-03-11T13:08:13.290Z,1.80
2019-03-11T13:10:42.291Z,1.73
2019-03-11T13:13:11.419Z,2.20
2019-03-11T13:15:40.469Z,1.93
2019-03-11T13:18:29.774Z,1.80
2019-03-11T13:20:59.373Z,1.60
2019-03-11T13:23:28.572Z,1.67
2019-03-11T13:25:57.584Z,1.60
2019-03-11T13:28:26.626Z,1.60
2019-03-11T13:30:56.093Z,1.60
2019-03-11T13:33:25.487Z,1.83
2019-03-11T13:35:56.630Z,1.65
2019-03-11T13:38:25.628Z,2.10
2019-03-11T13:40:54.902Z,1.97
2019-03-11T13:43:23.983Z,2.17
2019-03-11T13:45:52.993Z,2.03
2019-03-11T13:48:22.074Z,1.50
2019-03-11T13:50:51.075Z,1.60
2019-03-11T13:53:20.076Z,1.90
2019-03-11T13:55:49.104Z,1.70
2019-03-11T13:58:18.409Z,1.77
2019-03-11T14:00:56.443Z,1.57
2019-03-11T14:03:19.276Z,1.50
2019-03-11T14:05:48.411Z,2.00
2019-03-11T14:08:17.776Z,1.90
2019-03-11T14:10:46.790Z,1.90
2019-03-11T14:13:17.074Z,2.20
2019-03-11T14:15:46.478Z,1.67
2019-03-11T14:18:15.496Z,1.60
2019-03-11T14:20:44.496Z,1.70
2019-03-11T14:23:13.582Z,1.70
2019-03-11T14:25:43.012Z,1.77
2019-03-11T14:28:13.966Z,2.30
2019-03-11T14:30:43.218Z,2.00
2019-03-11T14:33:12.899Z,1.33
2019-03-11T14:35:41.906Z,1.77
2019-03-11T14:38:10.976Z,1.53
2019-03-11T14:40:40.420Z,1.43
2019-03-11T14:43:09.762Z,1.63
2019-03-11T14:45:39.096Z,1.50
2019-03-11T14:48:08.112Z,1.67
2019-03-11T14:50:37.242Z,1.60
2019-03-11T14:53:06.306Z,1.73
2019-03-11T14:55:35.411Z,1.80
2019-03-11T14:58:04.438Z,1.30
2019-03-11T15:00:33.484Z,1.67
2019-03-11T15:03:02.875Z,1.70
2019-03-11T15:05:32.267Z,2.03
2019-03-11T15:08:01.293Z,1.70
2019-03-11T15:10:30.360Z,2.00
2019-03-11T15:12:59.430Z,1.93
2019-03-11T15:15:28.801Z,1.70
2019-03-11T15:17:57.916Z,1.90
2019-03-11T15:20:27.304Z,1.40
2019-03-11T15:23:05.920Z,1.33
2019-03-11T15:25:27.505Z,1.80
2019-03-11T15:27:56.643Z,1.60
2019-03-11T15:30:26.230Z,1.57
2019-03-11T15:32:55.315Z,1.47
2019-03-11T15:35:24.481Z,1.40
2019-03-11T15:37:54.198Z,1.40
2019-03-11T15:40:23.240Z,1.67
2019-03-11T15:42:52.636Z,1.90
2019-03-11T15:45:21.673Z,1.80
2019-03-11T15:47:50.712Z,1.33
2019-03-11T15:50:22.319Z,1.63
2019-03-11T15:52:51.341Z,1.60
2019-03-11T15:55:20.422Z,1.50
2019-03-11T15:57:49.525Z,1.30
2019-03-11T16:00:19.733Z,1.40
2019-03-11T16:02:48.887Z,1.63
2019-03-11T16:05:19.052Z,1.60
2019-03-11T16:07:48.806Z,1.30
2019-03-11T16:10:18.457Z,1.80
2019-03-11T16:12:47.715Z,2.00
2019-03-11T16:15:16.978Z,1.37
2019-03-11T16:17:46.334Z,1.43
2019-03-11T16:20:16.704Z,1.70
2019-03-11T16:22:45.791Z,1.70
2019-03-11T16:25:15.376Z,1.43
2019-03-11T16:27:44.483Z,1.47
2019-03-11T16:30:18.475Z,1.50
2019-03-11T16:32:58.387Z,1.53
2019-03-11T16:35:19.265Z,1.30
2019-03-11T16:37:48.643Z,1.67
2019-03-11T16:40:17.664Z,1.50
2019-03-11T16:42:46.710Z,1.70
2019-03-11T16:45:16.847Z,1.47
2019-03-11T16:47:46.269Z,1.90
2019-03-11T16:50:16.455Z,2.00
2019-03-11T16:52:45.887Z,2.00
2019-03-11T16:55:16.392Z,1.83
2019-03-11T16:57:45.489Z,2.40
2019-03-11T17:00:16.962Z,1.80
2019-03-11T17:02:46.016Z,2.00
2019-03-11T17:05:15.048Z,2.03
2019-03-11T17:07:44.445Z,1.97
2019-03-11T17:10:14.177Z,2.00
2019-03-11T17:12:43.219Z,1.73
2019-03-11T17:15:12.660Z,2.20
2019-03-11T17:17:41.714Z,1.90
2019-03-11T17:20:11.953Z,2.03
2019-03-11T17:22:41.378Z,1.97
2019-03-11T17:25:11.159Z,1.60
2019-03-11T17:27:40.221Z,2.17
2019-03-11T17:30:11.426Z,1.97
2019-03-11T17:32:40.818Z,2.03
2019-03-11T17:35:10.448Z,1.77
2019-03-11T17:37:39.498Z,2.03
2019-03-11T17:40:10.587Z,1.80
2019-03-11T17:42:39.690Z,1.90
2019-03-11T17:45:09.923Z,1.67
2019-03-11T17:47:38.982Z,2.10
2019-03-11T17:50:10.082Z,1.90
2019-03-11T17:52:39.096Z,1.70
2019-03-11T17:55:08.745Z,1.87
2019-03-11T17:57:38.061Z,2.00
2019-03-11T18:00:10.767Z,1.90
2019-03-11T18:02:39.815Z,2.00
2019-03-11T18:05:08.857Z,2.00
2019-03-11T18:07:37.944Z,2.20
2019-03-11T18:10:07.277Z,2.07
2019-03-11T18:12:36.646Z,2.27
2019-03-11T18:15:06.080Z,3.17
2019-03-11T18:17:35.676Z,2.03
2019-03-11T18:20:04.850Z,43.13
2019-03-11T18:22:34.265Z,10.53
2019-03-11T18:25:03.971Z,13.30
2019-03-11T18:27:33.078Z,4.40
2019-03-11T18:30:02.467Z,4.20
2019-03-11T18:32:32.011Z,26.27
2019-03-11T18:35:01.577Z,41.93
2019-03-11T18:37:30.699Z,17.07
2019-03-11T18:39:59.760Z,16.50
2019-03-11T18:42:29.135Z,7.33
2019-03-11T18:44:58.501Z,22.03
2019-03-11T18:47:27.578Z,12.30
2019-03-11T18:49:56.686Z,10.33
2019-03-11T18:52:25.967Z,7.57
2019-03-11T18:54:55.464Z,7.50
2019-03-11T18:57:24.495Z,6.00
2019-03-11T18:59:53.759Z,3.17
2019-03-11T19:02:23.130Z,2.83
2019-03-11T19:04:52.370Z,2.83
2019-03-11T19:07:23.452Z,4.30
2019-03-11T19:09:52.977Z,3.40
2019-03-11T19:12:22.001Z,3.10
2019-03-11T19:14:51.704Z,3.00
2019-03-11T19:17:20.812Z,2.90
2019-03-11T19:19:49.894Z,2.90
2019-03-11T19:22:19.732Z,3.00
2019-03-11T19:24:48.731Z,2.70
2019-03-11T19:27:19.219Z,3.53
2019-03-11T19:29:48.276Z,3.70
2019-03-11T19:32:17.349Z,4.03
2019-03-11T19:34:46.867Z,4.60
2019-03-11T19:37:16.349Z,5.17
2019-03-11T19:39:45.843Z,11.13
2019-03-11T19:42:14.864Z,7.20
2019-03-11T19:44:43.998Z,6.43
2019-03-11T19:47:13.444Z,12.63
2019-03-11T19:49:43.197Z,15.10
2019-03-11T19:52:12.679Z,16.33
2019-03-11T19:54:41.983Z,15.50
2019-03-11T19:57:12.324Z,14.00
2019-03-11T19:59:41.763Z,12.10
2019-03-11T20:02:11.255Z,11.40
2019-03-11T20:04:41.192Z,8.33
2019-03-11T20:07:10.302Z,7.83
2019-03-11T20:09:40.180Z,8.53
2019-03-11T20:12:09.301Z,8.30
2019-03-11T20:14:38.405Z,7.80
2019-03-11T20:17:08.214Z,7.13
2019-03-11T20:19:37.302Z,7.10
2019-03-11T20:22:06.464Z,7.20
2019-03-11T20:24:35.898Z,7.87
2019-03-11T20:27:05.008Z,6.90
2019-03-11T20:29:34.346Z,6.93
2019-03-11T20:32:03.502Z,6.67
2019-03-11T20:34:32.680Z,6.33
2019-03-11T20:37:01.792Z,6.37
2019-03-11T20:39:30.748Z,5.70
2019-03-11T20:42:00.008Z,5.20
2019-03-11T20:44:29.179Z,5.30
2019-03-11T20:46:58.232Z,5.33
2019-03-11T20:49:29.451Z,5.17
2019-03-11T20:51:58.138Z,4.90
2019-03-11T20:54:27.208Z,5.93
2019-03-11T20:56:56.218Z,4.97
2019-03-11T20:59:25.656Z,6.00
2019-03-11T21:01:54.712Z,5.60
2019-03-11T21:04:24.605Z,5.20
2019-03-11T21:06:53.770Z,5.50
2019-03-11T21:09:23.160Z,5.03
2019-03-11T21:11:54.621Z,6.00
2019-03-11T21:14:22.917Z,5.97
2019-03-11T21:16:52.216Z,5.60
2019-03-11T21:19:21.306Z,5.97
2019-03-11T21:21:50.714Z,5.80
2019-03-11T21:24:19.770Z,6.10
2019-03-11T21:26:48.821Z,5.53
2019-03-11T21:29:17.909Z,6.30
2019-03-11T21:31:46.990Z,4.90
2019-03-11T21:34:16.245Z,5.33
2019-03-11T21:36:45.398Z,5.60
2019-03-11T21:39:14.761Z,6.03
2019-03-11T21:41:43.946Z,4.57
2019-03-11T21:44:13.010Z,5.70
2019-03-11T21:46:42.279Z,5.33
2019-03-11T21:49:11.966Z,5.50
2019-03-11T21:51:40.992Z,6.40
2019-03-11T21:54:10.145Z,5.50
2019-03-11T21:56:39.489Z,5.60
2019-03-11T21:59:08.587Z,5.80
2019-03-11T22:01:37.643Z,5.80
2019-03-11T22:04:06.668Z,5.50
2019-03-11T22:06:36.101Z,5.43
2019-03-11T22:09:06.968Z,4.87
2019-03-11T22:11:36.115Z,4.77
2019-03-11T22:14:05.144Z,5.20
2019-03-11T22:16:34.689Z,6.03
2019-03-11T22:19:04.105Z,5.13
2019-03-11T22:21:33.174Z,5.50
2019-03-11T22:24:02.561Z,5.83
2019-03-11T22:26:31.573Z,6.10
2019-03-11T22:29:00.698Z,5.70
2019-03-11T22:31:29.905Z,5.63
2019-03-11T22:33:58.943Z,5.63
2019-03-11T22:36:28.007Z,6.10
2019-03-11T22:38:56.984Z,5.97
2019-03-11T22:41:26.038Z,5.67
2019-03-11T22:43:55.045Z,5.40
2019-03-11T22:46:24.040Z,4.73
2019-03-11T22:48:53.068Z,5.73
2019-03-11T22:51:22.136Z,5.37
2019-03-11T22:53:51.919Z,5.17
2019-03-11T22:56:21.086Z,4.80
2019-03-11T22:58:50.135Z,5.43
2019-03-11T23:01:20.603Z,5.77
2019-03-11T23:03:50.780Z,5.33
2019-03-11T23:06:19.805Z,5.10
2019-03-11T23:08:48.959Z,5.40
2019-03-11T23:11:18.109Z,5.10
2019-03-11T23:13:47.131Z,5.13
2019-03-11T23:16:16.165Z,5.00
2019-03-11T23:18:45.570Z,5.37
2019-03-11T23:21:15.537Z,4.73
2019-03-11T23:23:44.923Z,5.67
2019-03-11T23:26:14.016Z,5.20
2019-03-11T23:28:43.420Z,4.70
2019-03-11T23:31:12.487Z,4.43
2019-03-11T23:33:41.531Z,5.43
2019-03-11T23:36:10.579Z,4.77
2019-03-11T23:38:39.611Z,4.83
2019-03-11T23:41:08.737Z,4.97
2019-03-11T23:43:37.779Z,4.60
2019-03-11T23:46:07.097Z,4.87
2019-03-11T23:48:36.195Z,4.67
2019-03-11T23:51:05.321Z,5.17
2019-03-11T23:53:34.698Z,4.20
2019-03-11T23:56:03.732Z,5.07
2019-03-11T23:58:32.753Z,4.20
